createdAt,value
2023-03-18T00:02:48.736Z,10.60
2023-03-18T00:05:52.808Z,10.50
2023-03-18T00:08:55.638Z,10.50
2023-03-18T00:11:58.476Z,10.50
2023-03-18T00:15:02.472Z,10.50
2023-03-18T00:18:06.817Z,10.40
2023-03-18T00:21:11.012Z,10.40
2023-03-18T00:24:15.356Z,10.40
2023-03-18T00:27:18.177Z,10.30
2023-03-18T00:30:22.085Z,10.40
2023-03-18T00:33:26.240Z,10.30
2023-03-18T00:36:30.436Z,10.30
2023-03-18T00:39:34.097Z,10.20
2023-03-18T00:42:42.633Z,10.20
2023-03-18T00:45:46.055Z,10.20
2023-03-18T00:48:50.291Z,10.20
2023-03-18T00:51:53.149Z,10.10
2023-03-18T00:54:56.688Z,10.10
2023-03-18T00:57:59.524Z,10.00
2023-03-18T01:01:02.805Z,10.00
2023-03-18T01:04:08.253Z,10.10
2023-03-18T01:07:11.782Z,10.10
2023-03-18T01:10:15.911Z,10.00
2023-03-18T01:13:18.773Z,10.00
2023-03-18T01:16:22.849Z,9.90
2023-03-18T01:19:27.200Z,9.80
2023-03-18T01:22:30.483Z,9.90
2023-03-18T01:25:33.758Z,9.90
2023-03-18T01:28:36.937Z,9.80
2023-03-18T01:31:39.940Z,9.90
2023-03-18T01:34:44.191Z,9.80
2023-03-18T01:37:47.116Z,9.80
2023-03-18T01:40:50.002Z,9.80
2023-03-18T01:43:54.654Z,9.80
2023-03-18T01:46:57.559Z,9.80
2023-03-18T01:50:01.831Z,9.70
2023-03-18T01:53:09.048Z,9.60
2023-03-18T01:56:12.891Z,9.60
2023-03-18T01:59:16.916Z,9.60
2023-03-18T02:02:20.683Z,9.50
2023-03-18T02:08:28.991Z,9.50
2023-03-18T02:11:34.268Z,9.50
2023-03-18T02:14:37.255Z,9.50
2023-03-18T02:17:43.739Z,9.50
2023-03-18T02:21:01.816Z,9.50
2023-03-18T02:24:10.617Z,9.50
2023-03-18T02:27:18.844Z,9.40
2023-03-18T02:30:28.052Z,9.40
2023-03-18T02:33:36.387Z,9.40
2023-03-18T02:36:39.321Z,9.40
2023-03-18T02:39:42.243Z,9.40
2023-03-18T02:42:47.595Z,9.30
2023-03-18T02:46:02.414Z,9.30
2023-03-18T02:49:08.667Z,9.30
2023-03-18T02:52:11.964Z,9.30
2023-03-18T02:55:15.491Z,9.20
2023-03-18T02:58:19.714Z,9.20
2023-03-18T03:01:23.524Z,9.20
2023-03-18T03:04:27.173Z,9.20
2023-03-18T03:07:30.261Z,9.30
2023-03-18T03:10:33.372Z,9.30
2023-03-18T03:13:38.860Z,9.20
2023-03-18T03:16:41.729Z,9.20
2023-03-18T03:19:44.709Z,9.20
2023-03-18T03:22:48.036Z,9.20
2023-03-18T03:25:51.008Z,9.20
2023-03-18T03:28:55.770Z,9.20
2023-03-18T03:31:58.586Z,9.20
2023-03-18T03:35:01.441Z,9.20
2023-03-18T03:38:04.387Z,9.20
2023-03-18T03:41:10.146Z,9.20
2023-03-18T03:44:14.317Z,9.20
2023-03-18T03:47:17.130Z,9.20
2023-03-18T03:50:20.213Z,9.20
2023-03-18T03:53:23.085Z,9.30
2023-03-18T03:56:26.030Z,9.30
2023-03-18T03:59:30.385Z,9.20
2023-03-18T04:02:33.232Z,9.20
2023-03-18T04:05:36.063Z,9.20
2023-03-18T04:08:38.973Z,9.30
2023-03-18T04:11:42.860Z,9.30
2023-03-18T04:14:48.649Z,9.30
2023-03-18T04:17:53.458Z,9.30
2023-03-18T04:20:56.481Z,9.20
2023-03-18T04:23:59.296Z,9.30
2023-03-18T04:27:02.105Z,9.30
2023-03-18T04:30:08.085Z,9.20
2023-03-18T04:33:11.063Z,9.30
2023-03-18T04:36:14.035Z,9.30
2023-03-18T04:39:16.875Z,9.30
2023-03-18T04:42:19.694Z,9.20
2023-03-18T04:45:24.879Z,9.20
2023-03-18T04:48:28.491Z,9.10
2023-03-18T04:51:31.328Z,9.20
2023-03-18T04:54:34.619Z,9.20
2023-03-18T04:57:38.533Z,9.20
2023-03-18T05:00:44.024Z,9.20
2023-03-18T05:03:47.317Z,9.20
2023-03-18T05:06:50.466Z,9.20
2023-03-18T05:09:53.307Z,9.20
2023-03-18T05:12:56.358Z,9.20
2023-03-18T05:16:00.540Z,9.20
2023-03-18T05:19:03.562Z,9.20
2023-03-18T05:22:06.579Z,9.20
2023-03-18T05:25:11.495Z,9.20
2023-03-18T05:28:14.346Z,9.30
2023-03-18T05:31:18.612Z,9.30
2023-03-18T05:34:21.532Z,9.30
2023-03-18T05:37:24.877Z,9.30
2023-03-18T05:40:27.711Z,9.30
2023-03-18T05:43:30.544Z,9.30
2023-03-18T05:46:34.761Z,9.20
2023-03-18T05:49:37.635Z,9.20
2023-03-18T05:52:40.489Z,9.20
2023-03-18T05:55:43.516Z,9.20
2023-03-18T05:58:46.382Z,9.20
2023-03-18T06:01:50.978Z,9.20
2023-03-18T06:04:53.815Z,9.20
2023-03-18T06:07:57.239Z,9.30
2023-03-18T06:11:00.075Z,9.30
2023-03-18T06:14:03.291Z,9.30
2023-03-18T06:17:07.887Z,9.30
2023-03-18T06:20:14.229Z,9.30
2023-03-18T06:23:17.298Z,9.30
2023-03-18T06:26:20.218Z,9.30
2023-03-18T06:29:23.043Z,9.40
2023-03-18T06:32:28.133Z,9.40
2023-03-18T06:35:31.800Z,9.50
2023-03-18T06:38:34.742Z,9.50
2023-03-18T06:41:37.626Z,9.50
2023-03-18T06:44:42.772Z,9.50
2023-03-18T06:47:47.984Z,9.50
2023-03-18T06:50:50.824Z,9.60
2023-03-18T06:53:54.596Z,9.60
2023-03-18T06:56:57.425Z,9.60
2023-03-18T07:00:00.375Z,9.60
2023-03-18T07:03:05.489Z,9.60
2023-03-18T07:06:09.701Z,9.70
2023-03-18T07:09:15.131Z,9.80
2023-03-18T07:12:17.954Z,9.90
2023-03-18T07:15:22.521Z,10.00
2023-03-18T07:18:26.792Z,10.00
2023-03-18T07:21:29.791Z,10.10
2023-03-18T07:24:32.642Z,10.20
2023-03-18T07:27:35.749Z,10.30
2023-03-18T07:30:39.537Z,10.40
2023-03-18T07:33:43.787Z,10.50
2023-03-18T07:36:46.893Z,10.60
2023-03-18T07:39:49.743Z,10.70
2023-03-18T07:42:53.495Z,10.80
2023-03-18T07:45:56.644Z,10.90
2023-03-18T07:49:01.066Z,11.00
2023-03-18T07:52:03.939Z,11.10
2023-03-18T07:55:09.169Z,11.20
2023-03-18T07:58:12.219Z,11.30
2023-03-18T08:01:18.445Z,11.30
2023-03-18T08:04:23.843Z,11.50
2023-03-18T08:07:26.763Z,11.60
2023-03-18T08:10:29.938Z,11.60
2023-03-18T08:13:32.866Z,11.70
2023-03-18T08:16:35.698Z,11.80
2023-03-18T08:19:40.003Z,11.90
2023-03-18T08:22:42.883Z,12.00
2023-03-18T08:25:49.548Z,12.10
2023-03-18T08:28:52.599Z,12.20
2023-03-18T08:31:55.497Z,12.30
2023-03-18T08:34:59.772Z,12.40
2023-03-18T08:38:04.150Z,12.50
2023-03-18T08:41:07.187Z,12.60
2023-03-18T08:44:10.900Z,12.70
2023-03-18T08:47:13.896Z,12.80
2023-03-18T08:50:19.587Z,12.90
2023-03-18T08:53:22.412Z,13.00
2023-03-18T08:56:25.311Z,13.00
2023-03-18T08:59:28.231Z,13.00
2023-03-18T09:02:31.325Z,13.00
2023-03-18T09:05:35.827Z,13.10
2023-03-18T09:08:39.549Z,13.20
2023-03-18T09:11:42.457Z,13.40
2023-03-18T09:14:45.562Z,13.40
2023-03-18T09:18:03.944Z,13.50
2023-03-18T09:21:12.611Z,13.50
2023-03-18T09:24:15.978Z,13.60
2023-03-18T09:27:18.904Z,13.70
2023-03-18T09:30:22.077Z,13.80
2023-03-18T09:33:25.602Z,13.90
2023-03-18T09:36:29.793Z,14.00
2023-03-18T09:39:32.692Z,14.10
2023-03-18T09:42:49.748Z,14.00
2023-03-18T09:46:03.088Z,14.00
2023-03-18T09:49:29.188Z,14.30
2023-03-18T09:52:36.535Z,14.50
2023-03-18T09:55:46.542Z,14.60
2023-03-18T09:58:54.855Z,14.80
2023-03-18T10:01:59.981Z,15.00
2023-03-18T10:05:08.013Z,14.90
2023-03-18T10:08:18.047Z,15.00
2023-03-18T10:11:26.322Z,15.30
2023-03-18T10:14:38.016Z,15.40
2023-03-18T10:17:43.738Z,15.50
2023-03-18T10:20:56.328Z,15.80
2023-03-18T10:24:07.475Z,15.90
2023-03-18T10:27:17.925Z,16.00
2023-03-18T10:30:32.690Z,16.20
2023-03-18T10:33:46.258Z,16.40
2023-03-18T10:36:55.689Z,16.40
2023-03-18T10:40:00.771Z,16.70
2023-03-18T10:43:05.658Z,16.70
2023-03-18T10:46:13.586Z,16.70
2023-03-18T10:49:21.056Z,17.10
2023-03-18T10:52:34.535Z,17.50
2023-03-18T10:55:46.236Z,17.90
2023-03-18T10:58:49.218Z,18.10
2023-03-18T11:01:58.617Z,18.30
2023-03-18T11:05:06.485Z,18.40
2023-03-18T11:08:28.806Z,18.40
2023-03-18T11:11:34.754Z,18.40
2023-03-18T11:14:38.409Z,18.60
2023-03-18T11:17:41.678Z,18.60
2023-03-18T11:20:47.765Z,18.90
2023-03-18T11:24:10.302Z,19.30
2023-03-18T11:27:28.010Z,19.60
2023-03-18T11:30:36.059Z,19.90
2023-03-18T11:33:39.264Z,20.00
2023-03-18T11:36:42.056Z,20.30
2023-03-18T11:39:44.890Z,20.50
2023-03-18T11:42:54.718Z,20.60
2023-03-18T11:46:00.440Z,20.90
2023-03-18T11:49:04.051Z,21.10
2023-03-18T11:52:34.489Z,21.30
2023-03-18T11:55:44.473Z,21.50
2023-03-18T11:59:14.593Z,21.60
2023-03-18T12:02:29.838Z,21.80
2023-03-18T12:05:44.023Z,21.90
2023-03-18T12:09:03.278Z,22.10
2023-03-18T12:12:19.569Z,22.20
2023-03-18T12:15:36.364Z,22.40
2023-03-18T12:18:51.627Z,22.60
2023-03-18T12:22:05.751Z,22.80
2023-03-18T12:25:32.836Z,23.00
2023-03-18T12:28:46.613Z,23.10
2023-03-18T12:32:08.033Z,23.10
2023-03-18T12:35:43.411Z,23.20
2023-03-18T12:39:05.810Z,23.40
2023-03-18T12:42:13.418Z,23.60
2023-03-18T12:45:19.336Z,23.70
2023-03-18T12:48:43.059Z,23.90
2023-03-18T12:51:50.996Z,23.90
2023-03-18T12:55:01.151Z,23.90
2023-03-18T12:58:07.424Z,24.00
2023-03-18T13:01:18.007Z,24.20
2023-03-18T13:04:28.149Z,24.30
2023-03-18T13:07:41.131Z,24.50
2023-03-18T13:10:46.684Z,24.30
2023-03-18T13:13:55.081Z,24.50
2023-03-18T13:16:59.153Z,24.70
2023-03-18T13:20:11.027Z,24.80
2023-03-18T13:23:45.310Z,25.00
2023-03-18T13:27:04.966Z,25.20
2023-03-18T13:30:17.485Z,25.20
2023-03-18T13:33:37.858Z,25.40
2023-03-18T13:37:12.368Z,25.50
2023-03-18T13:40:25.588Z,25.70
2023-03-18T13:43:30.877Z,25.70
2023-03-18T13:46:34.876Z,25.80
2023-03-18T13:49:39.632Z,25.90
2023-03-18T13:52:45.546Z,26.00
2023-03-18T13:55:55.188Z,26.00
2023-03-18T13:58:58.118Z,26.10
2023-03-18T14:02:45.465Z,26.20
2023-03-18T14:05:49.056Z,26.30
2023-03-18T14:08:54.330Z,26.40
2023-03-18T14:12:05.260Z,26.40
2023-03-18T14:15:37.277Z,26.50
2023-03-18T14:18:41.365Z,26.60
2023-03-18T14:21:48.581Z,26.70
2023-03-18T14:25:11.908Z,26.90
2023-03-18T14:28:24.725Z,26.90
2023-03-18T14:31:33.526Z,26.90
2023-03-18T14:34:55.098Z,26.90
2023-03-18T14:38:03.994Z,26.90
2023-03-18T14:41:17.337Z,26.90
2023-03-18T14:44:25.102Z,26.90
2023-03-18T14:47:39.519Z,26.90
2023-03-18T14:50:45.435Z,26.90
2023-03-18T14:53:53.184Z,26.80
2023-03-18T14:56:57.980Z,26.70
2023-03-18T15:00:01.599Z,26.60
2023-03-18T15:03:08.330Z,26.50
2023-03-18T15:06:19.096Z,26.40
2023-03-18T15:09:25.562Z,26.20
2023-03-18T15:12:30.608Z,26.00
2023-03-18T15:15:33.721Z,25.70
2023-03-18T15:18:39.895Z,25.50
2023-03-18T15:21:42.963Z,25.30
2023-03-18T15:24:46.263Z,25.10
2023-03-18T15:27:50.763Z,25.00
2023-03-18T15:30:55.981Z,24.80
2023-03-18T15:34:07.615Z,24.60
2023-03-18T15:37:33.553Z,24.50
2023-03-18T15:40:46.095Z,24.30
2023-03-18T15:43:52.547Z,24.20
2023-03-18T15:46:56.282Z,23.90
2023-03-18T15:50:01.385Z,23.80
2023-03-18T15:53:07.985Z,23.70
2023-03-18T15:56:20.877Z,23.60
2023-03-18T15:59:28.661Z,23.50
2023-03-18T16:02:32.111Z,23.30
2023-03-18T16:05:35.384Z,23.20
2023-03-18T16:08:38.669Z,23.10
2023-03-18T16:11:41.673Z,23.00
2023-03-18T16:14:49.083Z,22.80
2023-03-18T16:17:53.393Z,22.60
2023-03-18T16:20:57.363Z,22.40
2023-03-18T16:24:01.002Z,22.30
2023-03-18T16:27:05.967Z,22.20
2023-03-18T16:30:18.822Z,22.10
2023-03-18T16:33:22.508Z,21.90
2023-03-18T16:36:35.021Z,21.80
2023-03-18T16:39:37.943Z,21.80
2023-03-18T16:42:41.369Z,21.90
2023-03-18T16:45:47.192Z,22.00
2023-03-18T16:48:50.435Z,22.00
2023-03-18T16:51:53.417Z,22.00
2023-03-18T16:54:56.233Z,22.00
2023-03-18T16:58:00.727Z,21.80
2023-03-18T17:01:06.198Z,21.80
2023-03-18T17:04:19.764Z,21.70
2023-03-18T17:07:22.707Z,21.60
2023-03-18T17:10:27.753Z,21.40
2023-03-18T17:13:33.799Z,21.40
2023-03-18T17:16:38.216Z,21.30
2023-03-18T17:19:41.235Z,21.20
2023-03-18T17:22:45.021Z,21.00
2023-03-18T17:25:53.850Z,20.90
2023-03-18T17:28:58.588Z,20.80
2023-03-18T17:32:02.730Z,20.60
2023-03-18T17:35:14.137Z,20.50
2023-03-18T17:38:16.967Z,20.50
2023-03-18T17:41:21.880Z,20.40
2023-03-18T17:44:29.766Z,20.20
2023-03-18T17:47:34.285Z,20.10
2023-03-18T17:50:37.321Z,19.90
2023-03-18T17:53:42.771Z,19.70
2023-03-18T17:56:45.821Z,19.60
2023-03-18T17:59:49.105Z,19.50
2023-03-18T18:02:55.342Z,19.50
2023-03-18T18:06:00.126Z,19.30
2023-03-18T18:09:04.377Z,19.20
2023-03-18T18:12:12.843Z,19.10
2023-03-18T18:15:22.406Z,19.00
2023-03-18T18:18:29.119Z,18.90
2023-03-18T18:21:32.119Z,18.80
2023-03-18T18:24:35.637Z,18.70
2023-03-18T18:27:38.469Z,18.60
2023-03-18T18:30:41.554Z,18.50
2023-03-18T18:33:46.751Z,18.40
2023-03-18T18:36:50.632Z,18.30
2023-03-18T18:39:53.461Z,18.20
2023-03-18T18:42:56.842Z,18.20
2023-03-18T18:46:00.391Z,18.00
2023-03-18T18:49:04.752Z,17.90
2023-03-18T18:52:12.638Z,17.80
2023-03-18T18:55:15.598Z,17.70
2023-03-18T18:58:20.100Z,17.70
2023-03-18T19:01:23.196Z,17.60
2023-03-18T19:04:27.756Z,17.40
2023-03-18T19:07:30.678Z,17.30
2023-03-18T19:10:33.654Z,17.20
2023-03-18T19:13:38.281Z,17.20
2023-03-18T19:16:41.114Z,17.10
2023-03-18T19:19:45.988Z,17.00
2023-03-18T19:22:50.612Z,17.00
2023-03-18T19:25:54.191Z,16.90
2023-03-18T19:28:59.843Z,16.80
2023-03-18T19:32:03.495Z,16.80
2023-03-18T19:35:11.044Z,16.70
2023-03-18T19:38:18.170Z,16.60
2023-03-18T19:41:21.941Z,16.60
2023-03-18T19:44:26.137Z,16.50
2023-03-18T19:47:31.638Z,16.40
2023-03-18T19:50:36.094Z,16.30
2023-03-18T19:53:39.282Z,16.30
2023-03-18T19:56:42.103Z,16.30
2023-03-18T19:59:47.946Z,16.20
2023-03-18T20:02:51.495Z,16.20
2023-03-18T20:05:55.706Z,16.10
2023-03-18T20:08:58.713Z,16.10
2023-03-18T20:12:05.614Z,16.00
2023-03-18T20:15:14.734Z,16.00
2023-03-18T20:18:20.173Z,15.90
2023-03-18T20:21:29.534Z,15.80
2023-03-18T20:24:32.442Z,15.80
2023-03-18T20:27:35.631Z,15.70
2023-03-18T20:30:40.260Z,15.70
2023-03-18T20:33:43.098Z,15.60
2023-03-18T20:36:47.283Z,15.60
2023-03-18T20:39:52.165Z,15.50
2023-03-18T20:42:55.581Z,15.50
2023-03-18T20:46:00.709Z,15.40
2023-03-18T20:49:04.410Z,15.40
2023-03-18T20:52:21.711Z,15.30
2023-03-18T20:55:26.526Z,15.30
2023-03-18T20:58:29.543Z,15.20
2023-03-18T21:01:32.855Z,15.20
2023-03-18T21:04:37.108Z,15.20
2023-03-18T21:07:41.879Z,15.10
2023-03-18T21:10:44.904Z,15.10
2023-03-18T21:13:47.858Z,15.00
2023-03-18T21:16:51.760Z,15.00
2023-03-18T21:20:04.922Z,14.90
2023-03-18T21:23:23.792Z,14.90
2023-03-18T21:26:26.719Z,14.90
2023-03-18T21:29:29.621Z,14.80
2023-03-18T21:32:32.818Z,14.80
2023-03-18T21:35:36.451Z,14.70
2023-03-18T21:38:40.865Z,14.60
2023-03-18T21:41:43.868Z,14.60
2023-03-18T21:44:47.084Z,14.50
2023-03-18T21:47:50.033Z,14.30
2023-03-18T21:50:53.076Z,14.30
2023-03-18T21:53:57.825Z,14.40
2023-03-18T21:57:00.932Z,14.40
2023-03-18T22:00:04.790Z,14.30
2023-03-18T22:03:14.390Z,14.30
2023-03-18T22:06:18.492Z,14.20
2023-03-18T22:09:24.143Z,14.20
2023-03-18T22:12:28.998Z,14.10
2023-03-18T22:15:37.816Z,14.10
2023-03-18T22:18:41.566Z,14.10
2023-03-18T22:21:44.370Z,14.10
2023-03-18T22:24:49.022Z,14.10
2023-03-18T22:27:51.809Z,14.00
2023-03-18T22:30:55.787Z,13.90
2023-03-18T22:33:58.759Z,13.90
2023-03-18T22:37:01.676Z,13.90
2023-03-18T22:40:06.835Z,13.80
2023-03-18T22:43:19.172Z,13.80
2023-03-18T22:46:22.027Z,13.70
2023-03-18T22:49:24.852Z,13.70
2023-03-18T22:52:30.781Z,13.60
2023-03-18T22:55:38.639Z,13.60
2023-03-18T22:58:41.585Z,13.60
2023-03-18T23:01:44.616Z,13.50
2023-03-18T23:04:49.010Z,13.50
2023-03-18T23:07:52.454Z,13.50
2023-03-18T23:10:59.832Z,13.50
2023-03-18T23:14:03.519Z,13.50
2023-03-18T23:17:06.297Z,13.40
2023-03-18T23:20:10.717Z,13.40
2023-03-18T23:23:14.616Z,13.30
2023-03-18T23:26:19.160Z,13.40
2023-03-18T23:29:21.972Z,13.30
2023-03-18T23:32:25.630Z,13.20
2023-03-18T23:35:28.513Z,13.10
2023-03-18T23:38:31.355Z,13.10
2023-03-18T23:41:35.497Z,13.10
2023-03-18T23:44:38.572Z,13.10
2023-03-18T23:47:41.575Z,13.20
2023-03-18T23:50:44.360Z,13.20
2023-03-18T23:53:47.189Z,13.20
2023-03-18T23:56:51.607Z,13.20
2023-03-18T23:59:54.466Z,13.10
